sensor_id;sensor_type;location;lat;lon;timestamp;temperature;humidity
34837;DHT22;21053;50.848;4.652;2024-03-02T00:01:40;8.50;99.90
34837;DHT22;21053;50.848;4.652;2024-03-02T00:04:09;8.50;99.90
34837;DHT22;21053;50.848;4.652;2024-03-02T00:06:38;8.60;99.90
34837;DHT22;21053;50.848;4.652;2024-03-02T00:09:09;8.50;99.90
34837;DHT22;21053;50.848;4.652;2024-03-02T00:11:38;8.50;99.90
34837;DHT22;21053;50.848;4.652;2024-03-02T00:14:08;8.50;99.90
34837;DHT22;21053;50.848;4.652;2024-03-02T00:16:37;8.60;99.90
34837;DHT22;21053;50.848;4.652;2024-03-02T00:19:03;8.60;99.90
34837;DHT22;21053;50.848;4.652;2024-03-02T00:21:34;8.60;99.90
34837;DHT22;21053;50.848;4.652;2024-03-02T00:24:03;8.50;99.90
34837;DHT22;21053;50.848;4.652;2024-03-02T00:26:33;8.50;99.90
34837;DHT22;21053;50.848;4.652;2024-03-02T00:29:05;8.60;99.90
34837;DHT22;21053;50.848;4.652;2024-03-02T00:31:34;8.40;99.90
34837;DHT22;21053;50.848;4.652;2024-03-02T00:34:05;8.60;99.90
34837;DHT22;21053;50.848;4.652;2024-03-02T00:36:33;8.50;99.90
34837;DHT22;21053;50.848;4.652;2024-03-02T00:39:01;8.60;99.90
34837;DHT22;21053;50.848;4.652;2024-03-02T00:41:35;8.50;99.90
34837;DHT22;21053;50.848;4.652;2024-03-02T00:44:03;8.50;99.90
34837;DHT22;21053;50.848;4.652;2024-03-02T00:46:41;8.40;99.90
34837;DHT22;21053;50.848;4.652;2024-03-02T00:49:22;8.30;99.90
34837;DHT22;21053;50.848;4.652;2024-03-02T00:51:51;8.30;99.90
34837;DHT22;21053;50.848;4.652;2024-03-02T00:54:23;8.20;99.90
34837;DHT22;21053;50.848;4.652;2024-03-02T00:56:52;8.20;99.90
34837;DHT22;21053;50.848;4.652;2024-03-02T00:59:22;8.20;99.90
34837;DHT22;21053;50.848;4.652;2024-03-02T01:01:48;8.50;99.90
34837;DHT22;21053;50.848;4.652;2024-03-02T01:04:16;8.50;99.90
34837;DHT22;21053;50.848;4.652;2024-03-02T01:06:47;8.50;99.90
34837;DHT22;21053;50.848;4.652;2024-03-02T01:09:15;8.40;99.90
34837;DHT22;21053;50.848;4.652;2024-03-02T01:11:43;8.40;99.90
34837;DHT22;21053;50.848;4.652;2024-03-02T01:14:08;8.30;99.90
34837;DHT22;21053;50.848;4.652;2024-03-02T01:16:37;8.30;99.90
34837;DHT22;21053;50.848;4.652;2024-03-02T01:19:04;8.20;99.90
34837;DHT22;21053;50.848;4.652;2024-03-02T01:21:31;8.30;99.90
34837;DHT22;21053;50.848;4.652;2024-03-02T01:23:57;8.30;99.90
34837;DHT22;21053;50.848;4.652;2024-03-02T01:26:25;8.30;99.90
34837;DHT22;21053;50.848;4.652;2024-03-02T01:28:54;8.40;99.90
34837;DHT22;21053;50.848;4.652;2024-03-02T01:31:22;8.30;99.90
34837;DHT22;21053;50.848;4.652;2024-03-02T01:33:50;8.30;99.90
34837;DHT22;21053;50.848;4.652;2024-03-02T01:36:19;8.30;99.90
34837;DHT22;21053;50.848;4.652;2024-03-02T01:38:45;8.30;99.90
34837;DHT22;21053;50.848;4.652;2024-03-02T01:41:14;8.20;99.90
34837;DHT22;21053;50.848;4.652;2024-03-02T01:43:43;8.20;99.90
34837;DHT22;21053;50.848;4.652;2024-03-02T01:46:11;8.20;99.90
34837;DHT22;21053;50.848;4.652;2024-03-02T01:48:39;8.10;99.90
34837;DHT22;21053;50.848;4.652;2024-03-02T01:51:10;8.20;99.90
34837;DHT22;21053;50.848;4.652;2024-03-02T01:53:40;8.10;99.90
34837;DHT22;21053;50.848;4.652;2024-03-02T01:56:08;8.00;99.90
34837;DHT22;21053;50.848;4.652;2024-03-02T01:58:36;8.10;99.90
34837;DHT22;21053;50.848;4.652;2024-03-02T02:01:04;8.20;99.90
34837;DHT22;21053;50.848;4.652;2024-03-02T02:03:36;8.20;99.90
34837;DHT22;21053;50.848;4.652;2024-03-02T02:06:08;8.20;99.90
34837;DHT22;21053;50.848;4.652;2024-03-02T02:08:37;8.30;99.90
34837;DHT22;21053;50.848;4.652;2024-03-02T02:11:02;8.30;99.90
34837;DHT22;21053;50.848;4.652;2024-03-02T02:13:31;8.20;99.90
34837;DHT22;21053;50.848;4.652;2024-03-02T02:16:06;8.30;99.90
34837;DHT22;21053;50.848;4.652;2024-03-02T02:18:32;8.30;99.90
34837;DHT22;21053;50.848;4.652;2024-03-02T02:20:58;8.20;99.90
34837;DHT22;21053;50.848;4.652;2024-03-02T02:23:24;8.30;99.90
34837;DHT22;21053;50.848;4.652;2024-03-02T02:25:49;8.20;99.90
34837;DHT22;21053;50.848;4.652;2024-03-02T02:28:18;8.30;99.90
34837;DHT22;21053;50.848;4.652;2024-03-02T02:30:47;8.30;99.90
34837;DHT22;21053;50.848;4.652;2024-03-02T02:33:19;8.20;99.90
34837;DHT22;21053;50.848;4.652;2024-03-02T02:35:47;8.20;99.90
34837;DHT22;21053;50.848;4.652;2024-03-02T02:38:15;8.10;99.90
34837;DHT22;21053;50.848;4.652;2024-03-02T02:40:42;8.10;99.90
34837;DHT22;21053;50.848;4.652;2024-03-02T02:43:08;8.10;99.90
34837;DHT22;21053;50.848;4.652;2024-03-02T02:45:34;8.10;99.90
34837;DHT22;21053;50.848;4.652;2024-03-02T02:48:02;8.10;99.90
34837;DHT22;21053;50.848;4.652;2024-03-02T02:50:30;7.90;99.90
34837;DHT22;21053;50.848;4.652;2024-03-02T02:52:56;8.00;99.90
34837;DHT22;21053;50.848;4.652;2024-03-02T02:55:24;7.90;99.90
34837;DHT22;21053;50.848;4.652;2024-03-02T02:57:50;7.80;99.90
34837;DHT22;21053;50.848;4.652;2024-03-02T03:00:17;7.70;99.90
34837;DHT22;21053;50.848;4.652;2024-03-02T03:02:49;7.70;99.90
34837;DHT22;21053;50.848;4.652;2024-03-02T03:05:18;7.70;99.90
34837;DHT22;21053;50.848;4.652;2024-03-02T03:07:44;7.60;99.90
34837;DHT22;21053;50.848;4.652;2024-03-02T03:10:12;7.50;99.90
34837;DHT22;21053;50.848;4.652;2024-03-02T03:12:42;7.40;99.90
34837;DHT22;21053;50.848;4.652;2024-03-02T03:15:09;7.50;99.90
34837;DHT22;21053;50.848;4.652;2024-03-02T03:17:35;7.40;99.90
34837;DHT22;21053;50.848;4.652;2024-03-02T03:20:06;7.40;99.90
34837;DHT22;21053;50.848;4.652;2024-03-02T03:22:38;7.50;99.90
34837;DHT22;21053;50.848;4.652;2024-03-02T03:25:05;7.40;99.90
34837;DHT22;21053;50.848;4.652;2024-03-02T03:27:34;7.40;99.90
34837;DHT22;21053;50.848;4.652;2024-03-02T03:30:02;7.30;99.90
34837;DHT22;21053;50.848;4.652;2024-03-02T03:32:31;7.30;99.90
34837;DHT22;21053;50.848;4.652;2024-03-02T03:35:00;7.30;99.90
34837;DHT22;21053;50.848;4.652;2024-03-02T03:37:29;7.20;99.90
34837;DHT22;21053;50.848;4.652;2024-03-02T03:39:59;7.20;99.90
34837;DHT22;21053;50.848;4.652;2024-03-02T03:42:27;7.20;99.90
34837;DHT22;21053;50.848;4.652;2024-03-02T03:44:54;7.10;99.90
34837;DHT22;21053;50.848;4.652;2024-03-02T03:47:20;7.00;99.90
34837;DHT22;21053;50.848;4.652;2024-03-02T03:49:49;7.10;99.90
34837;DHT22;21053;50.848;4.652;2024-03-02T03:52:17;7.10;99.90
34837;DHT22;21053;50.848;4.652;2024-03-02T03:54:45;7.00;99.90
34837;DHT22;21053;50.848;4.652;2024-03-02T03:57:12;7.00;99.90
34837;DHT22;21053;50.848;4.652;2024-03-02T03:59:41;6.90;99.90
34837;DHT22;21053;50.848;4.652;2024-03-02T04:02:09;6.90;99.90
34837;DHT22;21053;50.848;4.652;2024-03-02T04:04:37;6.80;99.90
34837;DHT22;21053;50.848;4.652;2024-03-02T04:07:09;6.80;99.90
34837;DHT22;21053;50.848;4.652;2024-03-02T04:09:38;6.80;99.90
34837;DHT22;21053;50.848;4.652;2024-03-02T04:12:06;6.80;99.90
34837;DHT22;21053;50.848;4.652;2024-03-02T04:14:35;6.80;99.90
34837;DHT22;21053;50.848;4.652;2024-03-02T04:17:02;6.80;99.90
34837;DHT22;21053;50.848;4.652;2024-03-02T04:19:30;6.80;99.90
34837;DHT22;21053;50.848;4.652;2024-03-02T04:21:59;6.80;99.90
34837;DHT22;21053;50.848;4.652;2024-03-02T04:24:27;6.90;99.90
34837;DHT22;21053;50.848;4.652;2024-03-02T04:26:54;6.80;99.90
34837;DHT22;21053;50.848;4.652;2024-03-02T04:29:23;6.70;99.90
34837;DHT22;21053;50.848;4.652;2024-03-02T04:31:51;6.70;99.90
34837;DHT22;21053;50.848;4.652;2024-03-02T04:34:20;6.70;99.90
34837;DHT22;21053;50.848;4.652;2024-03-02T04:36:48;6.60;99.90
34837;DHT22;21053;50.848;4.652;2024-03-02T04:39:19;6.70;99.90
34837;DHT22;21053;50.848;4.652;2024-03-02T04:41:46;6.80;99.90
34837;DHT22;21053;50.848;4.652;2024-03-02T04:44:13;6.60;99.90
34837;DHT22;21053;50.848;4.652;2024-03-02T04:46:41;6.50;99.90
34837;DHT22;21053;50.848;4.652;2024-03-02T04:49:08;6.60;99.90
34837;DHT22;21053;50.848;4.652;2024-03-02T04:51:37;6.60;99.90
34837;DHT22;21053;50.848;4.652;2024-03-02T04:54:03;6.60;99.90
34837;DHT22;21053;50.848;4.652;2024-03-02T04:56:29;6.60;99.90
34837;DHT22;21053;50.848;4.652;2024-03-02T04:59:03;6.60;99.90
34837;DHT22;21053;50.848;4.652;2024-03-02T05:01:30;6.60;99.90
34837;DHT22;21053;50.848;4.652;2024-03-02T05:03:58;6.60;99.90
34837;DHT22;21053;50.848;4.652;2024-03-02T05:06:27;6.70;99.90
34837;DHT22;21053;50.848;4.652;2024-03-02T05:08:55;6.60;99.90
34837;DHT22;21053;50.848;4.652;2024-03-02T05:11:25;6.60;99.90
34837;DHT22;21053;50.848;4.652;2024-03-02T05:14:07;6.50;99.90
34837;DHT22;21053;50.848;4.652;2024-03-02T05:16:36;6.40;99.90
34837;DHT22;21053;50.848;4.652;2024-03-02T05:19:05;6.40;99.90
34837;DHT22;21053;50.848;4.652;2024-03-02T05:21:37;6.30;99.90
34837;DHT22;21053;50.848;4.652;2024-03-02T05:24:03;6.30;99.90
34837;DHT22;21053;50.848;4.652;2024-03-02T05:26:32;6.20;99.90
34837;DHT22;21053;50.848;4.652;2024-03-02T05:29:01;6.20;99.90
34837;DHT22;21053;50.848;4.652;2024-03-02T05:31:26;6.20;99.90
34837;DHT22;21053;50.848;4.652;2024-03-02T05:33:53;6.20;99.90
34837;DHT22;21053;50.848;4.652;2024-03-02T05:36:20;6.20;99.90
34837;DHT22;21053;50.848;4.652;2024-03-02T05:38:49;6.30;99.90
34837;DHT22;21053;50.848;4.652;2024-03-02T05:41:16;6.20;99.90
34837;DHT22;21053;50.848;4.652;2024-03-02T05:43:45;6.20;99.90
34837;DHT22;21053;50.848;4.652;2024-03-02T05:46:13;6.20;99.90
34837;DHT22;21053;50.848;4.652;2024-03-02T05:48:40;6.20;99.90
34837;DHT22;21053;50.848;4.652;2024-03-02T05:51:12;6.20;99.90
34837;DHT22;21053;50.848;4.652;2024-03-02T05:53:40;6.20;99.90
34837;DHT22;21053;50.848;4.652;2024-03-02T05:56:08;6.10;99.90
34837;DHT22;21053;50.848;4.652;2024-03-02T05:58:34;6.20;99.90
34837;DHT22;21053;50.848;4.652;2024-03-02T06:01:19;6.20;99.90
34837;DHT22;21053;50.848;4.652;2024-03-02T06:03:45;6.20;99.90
34837;DHT22;21053;50.848;4.652;2024-03-02T06:06:22;6.10;99.90
34837;DHT22;21053;50.848;4.652;2024-03-02T06:08:49;6.20;99.90
34837;DHT22;21053;50.848;4.652;2024-03-02T06:11:21;6.20;99.90
34837;DHT22;21053;50.848;4.652;2024-03-02T06:13:47;6.30;99.90
34837;DHT22;21053;50.848;4.652;2024-03-02T06:16:12;6.50;99.90
34837;DHT22;21053;50.848;4.652;2024-03-02T06:18:38;6.50;99.90
34837;DHT22;21053;50.848;4.652;2024-03-02T06:21:07;6.40;99.90
34837;DHT22;21053;50.848;4.652;2024-03-02T06:23:35;6.30;99.90
34837;DHT22;21053;50.848;4.652;2024-03-02T06:26:02;6.20;99.90
34837;DHT22;21053;50.848;4.652;2024-03-02T06:28:28;6.10;99.90
34837;DHT22;21053;50.848;4.652;2024-03-02T06:30:56;6.20;99.90
34837;DHT22;21053;50.848;4.652;2024-03-02T06:33:25;6.10;99.90
34837;DHT22;21053;50.848;4.652;2024-03-02T06:35:51;6.20;99.90
34837;DHT22;21053;50.848;4.652;2024-03-02T06:38:18;6.20;99.90
34837;DHT22;21053;50.848;4.652;2024-03-02T06:40:46;6.20;99.90
34837;DHT22;21053;50.848;4.652;2024-03-02T06:43:13;6.00;99.90
34837;DHT22;21053;50.848;4.652;2024-03-02T06:45:42;6.10;99.90
34837;DHT22;21053;50.848;4.652;2024-03-02T06:48:11;6.10;99.90
34837;DHT22;21053;50.848;4.652;2024-03-02T06:50:37;6.10;99.90
34837;DHT22;21053;50.848;4.652;2024-03-02T06:53:03;6.20;99.90
34837;DHT22;21053;50.848;4.652;2024-03-02T06:55:31;6.20;99.90
34837;DHT22;21053;50.848;4.652;2024-03-02T06:58:00;6.20;99.90
34837;DHT22;21053;50.848;4.652;2024-03-02T07:00:29;6.40;99.90
34837;DHT22;21053;50.848;4.652;2024-03-02T07:02:56;6.20;99.90
34837;DHT22;21053;50.848;4.652;2024-03-02T07:05:23;6.30;99.90
34837;DHT22;21053;50.848;4.652;2024-03-02T07:07:52;6.40;99.90
34837;DHT22;21053;50.848;4.652;2024-03-02T07:10:18;6.40;99.90
34837;DHT22;21053;50.848;4.652;2024-03-02T07:12:46;6.50;99.90
34837;DHT22;21053;50.848;4.652;2024-03-02T07:15:12;6.50;99.90
34837;DHT22;21053;50.848;4.652;2024-03-02T07:17:58;6.50;99.90
34837;DHT22;21053;50.848;4.652;2024-03-02T07:20:26;6.60;99.90
34837;DHT22;21053;50.848;4.652;2024-03-02T07:22:54;6.70;99.90
34837;DHT22;21053;50.848;4.652;2024-03-02T07:25:21;6.80;99.90
34837;DHT22;21053;50.848;4.652;2024-03-02T07:27:47;6.90;99.90
34837;DHT22;21053;50.848;4.652;2024-03-02T07:30:16;7.00;99.90
34837;DHT22;21053;50.848;4.652;2024-03-02T07:32:42;7.10;99.90
34837;DHT22;21053;50.848;4.652;2024-03-02T07:35:14;7.30;99.90
34837;DHT22;21053;50.848;4.652;2024-03-02T07:37:43;7.20;99.90
34837;DHT22;21053;50.848;4.652;2024-03-02T07:40:09;7.20;99.90
34837;DHT22;21053;50.848;4.652;2024-03-02T07:42:39;7.20;99.90
34837;DHT22;21053;50.848;4.652;2024-03-02T07:45:06;7.40;99.90
34837;DHT22;21053;50.848;4.652;2024-03-02T07:47:35;7.40;99.90
34837;DHT22;21053;50.848;4.652;2024-03-02T07:50:01;7.40;99.90
34837;DHT22;21053;50.848;4.652;2024-03-02T07:52:30;7.40;99.90
34837;DHT22;21053;50.848;4.652;2024-03-02T07:54:59;7.60;99.90
34837;DHT22;21053;50.848;4.652;2024-03-02T07:57:26;7.70;99.90
34837;DHT22;21053;50.848;4.652;2024-03-02T07:59:53;7.60;99.90
34837;DHT22;21053;50.848;4.652;2024-03-02T08:02:22;7.70;99.90
34837;DHT22;21053;50.848;4.652;2024-03-02T08:04:48;7.70;99.90
34837;DHT22;21053;50.848;4.652;2024-03-02T08:07:16;7.80;99.90
34837;DHT22;21053;50.848;4.652;2024-03-02T08:09:44;7.90;99.90
34837;DHT22;21053;50.848;4.652;2024-03-02T08:12:13;7.90;99.90
34837;DHT22;21053;50.848;4.652;2024-03-02T08:14:41;8.00;99.90
34837;DHT22;21053;50.848;4.652;2024-03-02T08:17:09;8.00;99.90
34837;DHT22;21053;50.848;4.652;2024-03-02T08:19:38;8.20;99.90
34837;DHT22;21053;50.848;4.652;2024-03-02T08:22:05;8.20;99.90
34837;DHT22;21053;50.848;4.652;2024-03-02T08:24:35;8.30;99.90
34837;DHT22;21053;50.848;4.652;2024-03-02T08:27:03;8.40;99.90
34837;DHT22;21053;50.848;4.652;2024-03-02T08:29:28;8.50;99.90
34837;DHT22;21053;50.848;4.652;2024-03-02T08:32:01;8.50;99.90
34837;DHT22;21053;50.848;4.652;2024-03-02T08:34:32;8.60;99.90
34837;DHT22;21053;50.848;4.652;2024-03-02T08:36:58;8.70;99.90
34837;DHT22;21053;50.848;4.652;2024-03-02T08:39:26;8.80;99.90
34837;DHT22;21053;50.848;4.652;2024-03-02T08:41:56;8.90;99.90
34837;DHT22;21053;50.848;4.652;2024-03-02T08:44:22;8.90;99.90
34837;DHT22;21053;50.848;4.652;2024-03-02T08:46:51;9.00;99.90
34837;DHT22;21053;50.848;4.652;2024-03-02T08:49:20;9.00;99.90
34837;DHT22;21053;50.848;4.652;2024-03-02T08:51:47;9.10;99.90
34837;DHT22;21053;50.848;4.652;2024-03-02T08:54:23;9.10;99.90
34837;DHT22;21053;50.848;4.652;2024-03-02T08:56:53;9.20;99.90
34837;DHT22;21053;50.848;4.652;2024-03-02T08:59:21;9.30;99.90
34837;DHT22;21053;50.848;4.652;2024-03-02T09:01:50;9.50;99.90
34837;DHT22;21053;50.848;4.652;2024-03-02T09:04:18;9.50;99.90
34837;DHT22;21053;50.848;4.652;2024-03-02T09:06:45;9.60;99.90
34837;DHT22;21053;50.848;4.652;2024-03-02T09:09:10;9.60;99.90
34837;DHT22;21053;50.848;4.652;2024-03-02T09:11:39;9.60;99.90
34837;DHT22;21053;50.848;4.652;2024-03-02T09:14:08;9.70;99.90
34837;DHT22;21053;50.848;4.652;2024-03-02T09:16:36;9.70;99.90
34837;DHT22;21053;50.848;4.652;2024-03-02T09:19:02;9.70;99.90
34837;DHT22;21053;50.848;4.652;2024-03-02T09:21:34;9.90;99.90
34837;DHT22;21053;50.848;4.652;2024-03-02T09:24:01;9.90;99.90
34837;DHT22;21053;50.848;4.652;2024-03-02T09:26:31;10.00;99.90
34837;DHT22;21053;50.848;4.652;2024-03-02T09:29:00;10.00;99.90
34837;DHT22;21053;50.848;4.652;2024-03-02T09:31:31;10.00;99.90
34837;DHT22;21053;50.848;4.652;2024-03-02T09:33:58;10.00;99.90
34837;DHT22;21053;50.848;4.652;2024-03-02T09:36:24;10.10;99.90
34837;DHT22;21053;50.848;4.652;2024-03-02T09:38:53;10.30;99.90
34837;DHT22;21053;50.848;4.652;2024-03-02T09:41:40;10.60;99.90
34837;DHT22;21053;50.848;4.652;2024-03-02T09:44:12;10.70;99.90
34837;DHT22;21053;50.848;4.652;2024-03-02T09:46:37;10.90;99.90
34837;DHT22;21053;50.848;4.652;2024-03-02T09:49:07;10.90;99.90
34837;DHT22;21053;50.848;4.652;2024-03-02T09:51:34;11.20;99.90
34837;DHT22;21053;50.848;4.652;2024-03-02T09:54:02;11.60;99.90
34837;DHT22;21053;50.848;4.652;2024-03-02T09:56:31;13.00;99.90
34837;DHT22;21053;50.848;4.652;2024-03-02T09:58:56;15.10;99.10
34837;DHT22;21053;50.848;4.652;2024-03-02T10:01:25;16.70;96.00
34837;DHT22;21053;50.848;4.652;2024-03-02T10:03:53;19.40;90.80
34837;DHT22;21053;50.848;4.652;2024-03-02T10:06:26;21.70;88.20
34837;DHT22;21053;50.848;4.652;2024-03-02T10:08:57;21.90;75.80
34837;DHT22;21053;50.848;4.652;2024-03-02T10:11:33;22.40;75.30
34837;DHT22;21053;50.848;4.652;2024-03-02T10:14:12;21.90;74.80
34837;DHT22;21053;50.848;4.652;2024-03-02T10:16:42;20.50;75.20
34837;DHT22;21053;50.848;4.652;2024-03-02T10:22:00;16.50;89.00
34837;DHT22;21053;50.848;4.652;2024-03-02T10:24:27;16.20;91.80
34837;DHT22;21053;50.848;4.652;2024-03-02T10:26:55;17.60;88.20
34837;DHT22;21053;50.848;4.652;2024-03-02T10:29:22;18.40;85.80
34837;DHT22;21053;50.848;4.652;2024-03-02T10:31:49;21.20;80.70
34837;DHT22;21053;50.848;4.652;2024-03-02T10:34:18;23.50;72.60
34837;DHT22;21053;50.848;4.652;2024-03-02T10:36:46;24.40;66.20
34837;DHT22;21053;50.848;4.652;2024-03-02T10:39:14;23.30;67.60
34837;DHT22;21053;50.848;4.652;2024-03-02T10:41:40;22.80;69.70
34837;DHT22;21053;50.848;4.652;2024-03-02T10:44:07;22.40;72.20
34837;DHT22;21053;50.848;4.652;2024-03-02T10:46:37;23.30;70.30
34837;DHT22;21053;50.848;4.652;2024-03-02T10:49:05;25.60;66.60
34837;DHT22;21053;50.848;4.652;2024-03-02T10:51:35;27.30;62.90
34837;DHT22;21053;50.848;4.652;2024-03-02T10:54:03;26.10;60.50
34837;DHT22;21053;50.848;4.652;2024-03-02T10:56:39;25.80;61.80
34837;DHT22;21053;50.848;4.652;2024-03-02T10:59:22;25.10;63.00
34837;DHT22;21053;50.848;4.652;2024-03-02T11:01:50;25.20;61.70
34837;DHT22;21053;50.848;4.652;2024-03-02T11:04:18;26.50;60.00
34837;DHT22;21053;50.848;4.652;2024-03-02T11:07:00;26.80;58.10
34837;DHT22;21053;50.848;4.652;2024-03-02T11:09:27;23.10;61.50
34837;DHT22;21053;50.848;4.652;2024-03-02T11:12:43;21.70;64.70
34837;DHT22;21053;50.848;4.652;2024-03-02T11:15:17;20.50;71.00
34837;DHT22;21053;50.848;4.652;2024-03-02T11:17:46;19.40;73.20
34837;DHT22;21053;50.848;4.652;2024-03-02T11:20:14;19.00;77.40
34837;DHT22;21053;50.848;4.652;2024-03-02T11:22:43;20.80;74.60
34837;DHT22;21053;50.848;4.652;2024-03-02T11:33:09;23.50;70.40
34837;DHT22;21053;50.848;4.652;2024-03-02T11:35:35;23.80;63.90
34837;DHT22;21053;50.848;4.652;2024-03-02T11:38:04;22.50;67.60
34837;DHT22;21053;50.848;4.652;2024-03-02T11:40:31;23.60;65.50
34837;DHT22;21053;50.848;4.652;2024-03-02T11:43:00;22.70;65.90
34837;DHT22;21053;50.848;4.652;2024-03-02T11:45:27;21.80;67.70
34837;DHT22;21053;50.848;4.652;2024-03-02T11:48:00;21.80;68.70
34837;DHT22;21053;50.848;4.652;2024-03-02T11:50:49;22.50;67.40
34837;DHT22;21053;50.848;4.652;2024-03-02T11:53:15;22.40;68.80
34837;DHT22;21053;50.848;4.652;2024-03-02T11:55:41;21.50;70.10
34837;DHT22;21053;50.848;4.652;2024-03-02T11:58:15;22.40;67.70
34837;DHT22;21053;50.848;4.652;2024-03-02T12:00:54;22.20;68.70
34837;DHT22;21053;50.848;4.652;2024-03-02T12:03:23;22.20;68.40
34837;DHT22;21053;50.848;4.652;2024-03-02T12:05:53;22.70;67.70
34837;DHT22;21053;50.848;4.652;2024-03-02T12:08:22;22.80;64.70
34837;DHT22;21053;50.848;4.652;2024-03-02T12:11:02;22.80;67.00
34837;DHT22;21053;50.848;4.652;2024-03-02T12:13:28;20.60;67.70
34837;DHT22;21053;50.848;4.652;2024-03-02T12:15:56;19.40;75.00
34837;DHT22;21053;50.848;4.652;2024-03-02T12:18:23;19.80;76.30
34837;DHT22;21053;50.848;4.652;2024-03-02T12:20:52;19.50;71.10
34837;DHT22;21053;50.848;4.652;2024-03-02T12:23:21;19.20;73.40
34837;DHT22;21053;50.848;4.652;2024-03-02T12:25:50;19.70;76.70
34837;DHT22;21053;50.848;4.652;2024-03-02T12:28:19;20.20;74.30
34837;DHT22;21053;50.848;4.652;2024-03-02T12:30:48;19.60;72.70
34837;DHT22;21053;50.848;4.652;2024-03-02T12:33:17;19.90;74.90
34837;DHT22;21053;50.848;4.652;2024-03-02T12:35:45;19.10;75.70
34837;DHT22;21053;50.848;4.652;2024-03-02T12:38:15;18.40;79.40
34837;DHT22;21053;50.848;4.652;2024-03-02T12:40:44;17.90;80.20
34837;DHT22;21053;50.848;4.652;2024-03-02T12:43:14;17.70;81.20
34837;DHT22;21053;50.848;4.652;2024-03-02T12:45:43;17.40;81.00
34837;DHT22;21053;50.848;4.652;2024-03-02T12:48:13;17.10;81.20
34837;DHT22;21053;50.848;4.652;2024-03-02T12:50:39;16.50;84.00
34837;DHT22;21053;50.848;4.652;2024-03-02T12:53:14;16.30;83.30
34837;DHT22;21053;50.848;4.652;2024-03-02T12:58:19;16.00;87.20
34837;DHT22;21053;50.848;4.652;2024-03-02T13:03:17;15.80;88.20
34837;DHT22;21053;50.848;4.652;2024-03-02T13:05:49;16.00;88.60
34837;DHT22;21053;50.848;4.652;2024-03-02T13:08:17;16.00;87.10
34837;DHT22;21053;50.848;4.652;2024-03-02T13:10:45;15.90;85.50
34837;DHT22;21053;50.848;4.652;2024-03-02T13:13:13;16.00;85.60
34837;DHT22;21053;50.848;4.652;2024-03-02T13:15:42;16.20;87.50
34837;DHT22;21053;50.848;4.652;2024-03-02T13:18:08;16.20;89.70
34837;DHT22;21053;50.848;4.652;2024-03-02T13:20:34;16.40;88.00
34837;DHT22;21053;50.848;4.652;2024-03-02T13:23:04;16.30;89.30
34837;DHT22;21053;50.848;4.652;2024-03-02T13:25:29;16.00;89.00
34837;DHT22;21053;50.848;4.652;2024-03-02T13:28:01;16.00;89.00
34837;DHT22;21053;50.848;4.652;2024-03-02T13:30:27;16.40;87.80
34837;DHT22;21053;50.848;4.652;2024-03-02T13:32:55;16.30;85.40
34837;DHT22;21053;50.848;4.652;2024-03-02T13:35:21;16.10;87.20
34837;DHT22;21053;50.848;4.652;2024-03-02T13:37:47;16.20;86.70
34837;DHT22;21053;50.848;4.652;2024-03-02T13:40:16;16.20;88.30
34837;DHT22;21053;50.848;4.652;2024-03-02T13:42:49;16.30;88.50
34837;DHT22;21053;50.848;4.652;2024-03-02T13:45:19;16.50;88.10
34837;DHT22;21053;50.848;4.652;2024-03-02T13:47:44;16.20;86.10
34837;DHT22;21053;50.848;4.652;2024-03-02T13:50:13;15.90;87.50
34837;DHT22;21053;50.848;4.652;2024-03-02T13:52:39;16.00;89.20
34837;DHT22;21053;50.848;4.652;2024-03-02T13:55:07;15.80;90.50
34837;DHT22;21053;50.848;4.652;2024-03-02T13:57:34;15.90;88.50
34837;DHT22;21053;50.848;4.652;2024-03-02T14:00:04;16.00;87.50
34837;DHT22;21053;50.848;4.652;2024-03-02T14:02:36;16.00;87.50
34837;DHT22;21053;50.848;4.652;2024-03-02T14:05:02;15.70;90.30
34837;DHT22;21053;50.848;4.652;2024-03-02T14:07:28;15.60;90.20
34837;DHT22;21053;50.848;4.652;2024-03-02T14:09:57;15.50;90.20
34837;DHT22;21053;50.848;4.652;2024-03-02T14:12:26;15.50;90.80
34837;DHT22;21053;50.848;4.652;2024-03-02T14:14:55;15.60;90.40
34837;DHT22;21053;50.848;4.652;2024-03-02T14:17:25;15.60;90.00
34837;DHT22;21053;50.848;4.652;2024-03-02T14:19:54;15.60;90.10
34837;DHT22;21053;50.848;4.652;2024-03-02T14:22:22;15.50;91.00
34837;DHT22;21053;50.848;4.652;2024-03-02T14:24:54;15.40;91.00
34837;DHT22;21053;50.848;4.652;2024-03-02T14:27:20;15.40;90.70
34837;DHT22;21053;50.848;4.652;2024-03-02T14:29:47;15.30;91.20
34837;DHT22;21053;50.848;4.652;2024-03-02T14:32:16;15.20;91.90
34837;DHT22;21053;50.848;4.652;2024-03-02T14:34:43;15.10;91.80
34837;DHT22;21053;50.848;4.652;2024-03-02T14:37:13;14.90;91.50
34837;DHT22;21053;50.848;4.652;2024-03-02T14:39:40;15.00;92.00
34837;DHT22;21053;50.848;4.652;2024-03-02T14:42:08;14.90;92.50
34837;DHT22;21053;50.848;4.652;2024-03-02T14:44:37;15.00;92.20
34837;DHT22;21053;50.848;4.652;2024-03-02T14:47:06;14.70;91.30
34837;DHT22;21053;50.848;4.652;2024-03-02T14:49:36;14.80;92.10
34837;DHT22;21053;50.848;4.652;2024-03-02T14:52:06;14.90;91.70
34837;DHT22;21053;50.848;4.652;2024-03-02T14:54:36;14.90;91.50
34837;DHT22;21053;50.848;4.652;2024-03-02T14:57:01;14.80;92.10
34837;DHT22;21053;50.848;4.652;2024-03-02T14:59:31;14.80;93.00
34837;DHT22;21053;50.848;4.652;2024-03-02T15:02:50;14.70;92.50
34837;DHT22;21053;50.848;4.652;2024-03-02T15:05:17;14.70;93.30
34837;DHT22;21053;50.848;4.652;2024-03-02T15:07:46;14.70;92.80
34837;DHT22;21053;50.848;4.652;2024-03-02T15:10:13;14.70;92.60
34837;DHT22;21053;50.848;4.652;2024-03-02T15:12:41;14.70;94.10
34837;DHT22;21053;50.848;4.652;2024-03-02T15:15:10;14.60;93.30
34837;DHT22;21053;50.848;4.652;2024-03-02T15:17:40;14.60;94.30
34837;DHT22;21053;50.848;4.652;2024-03-02T15:20:09;14.60;93.40
34837;DHT22;21053;50.848;4.652;2024-03-02T15:22:37;14.60;93.40
34837;DHT22;21053;50.848;4.652;2024-03-02T15:25:03;14.50;94.50
34837;DHT22;21053;50.848;4.652;2024-03-02T15:27:32;14.50;94.10
34837;DHT22;21053;50.848;4.652;2024-03-02T15:29:59;14.50;95.00
34837;DHT22;21053;50.848;4.652;2024-03-02T15:32:31;14.50;95.30
34837;DHT22;21053;50.848;4.652;2024-03-02T15:35:00;14.50;96.30
34837;DHT22;21053;50.848;4.652;2024-03-02T15:37:26;14.50;96.40
34837;DHT22;21053;50.848;4.652;2024-03-02T15:39:55;14.50;95.70
34837;DHT22;21053;50.848;4.652;2024-03-02T15:42:22;14.60;95.20
34837;DHT22;21053;50.848;4.652;2024-03-02T15:44:49;14.60;95.50
34837;DHT22;21053;50.848;4.652;2024-03-02T15:47:16;14.60;95.70
34837;DHT22;21053;50.848;4.652;2024-03-02T15:49:44;14.70;95.40
34837;DHT22;21053;50.848;4.652;2024-03-02T15:52:11;14.60;94.20
34837;DHT22;21053;50.848;4.652;2024-03-02T15:54:39;14.50;94.60
34837;DHT22;21053;50.848;4.652;2024-03-02T15:57:06;14.50;95.20
34837;DHT22;21053;50.848;4.652;2024-03-02T15:59:34;14.50;95.60
34837;DHT22;21053;50.848;4.652;2024-03-02T16:02:03;14.50;95.20
34837;DHT22;21053;50.848;4.652;2024-03-02T16:04:29;14.60;95.10
34837;DHT22;21053;50.848;4.652;2024-03-02T16:06:58;14.50;96.00